createdAt,value
2022-09-18T00:00:41.561Z,96.13
2022-09-18T00:03:18.168Z,93.37
2022-09-18T00:06:09.487Z,95.05
2022-09-18T00:08:49.854Z,96.81
2022-09-18T00:11:31.769Z,93.29
2022-09-18T00:14:05.754Z,94.22
2022-09-18T00:16:37.951Z,92.57
2022-09-18T00:19:10.435Z,91.83
2022-09-18T00:22:01.853Z,92.04
2022-09-18T00:24:45.796Z,97.03
2022-09-18T00:27:20.712Z,95.72
2022-09-18T00:30:06.046Z,91.90
2022-09-18T00:32:47.568Z,94.44
2022-09-18T00:35:16.851Z,95.09
2022-09-18T00:38:12.470Z,99.05
2022-09-18T00:41:05.105Z,100.00
2022-09-18T00:43:37.004Z,99.26
2022-09-18T00:46:29.713Z,99.47
2022-09-18T00:49:17.142Z,98.27
2022-09-18T00:51:49.940Z,97.02
2022-09-18T00:54:29.812Z,97.58
2022-09-18T00:57:13.524Z,99.20
2022-09-18T01:00:02.392Z,98.70
2022-09-18T01:02:45.627Z,98.03
2022-09-18T01:05:33.033Z,96.63
2022-09-18T01:08:44.093Z,98.64
2022-09-18T01:11:39.625Z,98.42
2022-09-18T01:14:30.448Z,99.47
2022-09-18T01:17:27.994Z,100.00
2022-09-18T01:20:58.381Z,99.27
2022-09-18T01:24:29.182Z,100.00
2022-09-18T01:27:20.294Z,96.17
2022-09-18T01:30:21.652Z,97.88
2022-09-18T01:33:13.233Z,98.56
2022-09-18T01:36:17.883Z,99.74
2022-09-18T01:39:06.945Z,99.63
2022-09-18T01:41:56.909Z,99.85
2022-09-18T01:44:37.456Z,98.93
2022-09-18T01:47:21.604Z,99.06
2022-09-18T01:50:07.819Z,98.32
2022-09-18T01:52:55.142Z,97.94
2022-09-18T01:55:30.190Z,97.78
2022-09-18T01:58:13.708Z,99.00
2022-09-18T02:00:55.306Z,97.56
2022-09-18T02:03:42.914Z,96.87
2022-09-18T02:06:17.468Z,96.68
2022-09-18T02:08:50.364Z,97.78
2022-09-18T02:11:21.501Z,99.59
2022-09-18T02:13:57.462Z,97.69
2022-09-18T02:16:33.080Z,97.85
2022-09-18T02:19:11.776Z,97.54
2022-09-18T02:21:43.791Z,98.96
2022-09-18T02:24:16.309Z,97.63
2022-09-18T02:26:48.781Z,99.97
2022-09-18T02:29:21.038Z,99.96
2022-09-18T02:31:50.454Z,100.00
2022-09-18T02:34:21.583Z,99.04
2022-09-18T02:37:10.485Z,100.00
2022-09-18T02:39:59.500Z,100.00
2022-09-18T02:42:43.012Z,100.00
2022-09-18T02:45:27.216Z,100.00
2022-09-18T02:48:15.621Z,100.00
2022-09-18T02:51:00.560Z,100.00
2022-09-18T02:53:37.939Z,100.00
2022-09-18T02:56:11.256Z,100.00
2022-09-18T02:58:48.038Z,100.00
2022-09-18T03:01:18.506Z,100.00
2022-09-18T03:03:49.172Z,100.00
2022-09-18T03:06:18.868Z,100.00
2022-09-18T03:08:47.043Z,99.83
2022-09-18T03:11:14.813Z,98.83
2022-09-18T03:13:42.590Z,99.98
2022-09-18T03:16:10.413Z,99.38
2022-09-18T03:18:38.283Z,100.00
2022-09-18T03:21:07.127Z,100.00
2022-09-18T03:23:36.198Z,99.39
2022-09-18T03:26:04.154Z,99.65
2022-09-18T03:28:32.567Z,99.00
2022-09-18T03:31:00.554Z,99.15
2022-09-18T03:33:28.330Z,97.85
2022-09-18T03:35:56.116Z,95.57
2022-09-18T03:38:23.873Z,96.01
2022-09-18T03:40:52.979Z,98.81
2022-09-18T03:43:20.743Z,97.70
2022-09-18T03:45:48.990Z,98.55
2022-09-18T03:48:16.836Z,98.49
2022-09-18T03:50:44.614Z,99.50
2022-09-18T03:53:12.417Z,100.00
2022-09-18T03:55:40.293Z,97.86
2022-09-18T03:58:09.420Z,97.80
2022-09-18T04:00:37.249Z,97.61
2022-09-18T04:03:05.439Z,94.96
2022-09-18T04:05:33.283Z,95.90
2022-09-18T04:08:01.111Z,96.88
2022-09-18T04:10:28.899Z,95.93
2022-09-18T04:12:56.666Z,95.80
2022-09-18T04:15:28.542Z,93.84
2022-09-18T04:17:56.329Z,94.52
2022-09-18T04:20:24.094Z,96.15
2022-09-18T04:22:52.010Z,93.33
2022-09-18T04:25:19.781Z,96.11
2022-09-18T04:27:47.555Z,97.37
2022-09-18T04:30:15.651Z,94.63
2022-09-18T04:32:45.649Z,95.58
2022-09-18T04:35:14.143Z,94.00
2022-09-18T04:37:44.473Z,92.11
2022-09-18T04:40:12.888Z,92.44
2022-09-18T04:42:40.855Z,92.06
2022-09-18T04:45:10.905Z,92.15
2022-09-18T04:47:38.767Z,92.15
2022-09-18T04:50:11.021Z,93.64
2022-09-18T04:52:38.883Z,91.42
2022-09-18T04:55:07.935Z,94.12
2022-09-18T04:57:35.767Z,92.33
2022-09-18T05:00:06.607Z,88.64
2022-09-18T05:02:34.413Z,90.24
2022-09-18T05:05:02.202Z,90.33
2022-09-18T05:07:32.058Z,89.07
2022-09-18T05:10:00.349Z,88.52
2022-09-18T05:12:28.107Z,89.93
2022-09-18T05:14:55.917Z,86.23
2022-09-18T05:17:23.736Z,85.41
2022-09-18T05:19:51.525Z,85.25
2022-09-18T05:22:19.404Z,85.04
2022-09-18T05:24:48.489Z,86.68
2022-09-18T05:27:16.428Z,87.66
2022-09-18T05:29:44.352Z,85.01
2022-09-18T05:32:12.300Z,85.64
2022-09-18T05:34:40.129Z,87.80
2022-09-18T05:37:07.905Z,88.00
2022-09-18T05:39:35.674Z,88.09
2022-09-18T05:42:05.148Z,88.71
2022-09-18T05:44:32.958Z,89.42
2022-09-18T05:47:01.258Z,89.85
2022-09-18T05:49:29.706Z,89.82
2022-09-18T05:51:57.472Z,90.01
2022-09-18T05:54:25.255Z,87.27
2022-09-18T05:56:54.644Z,85.46
2022-09-18T05:59:23.727Z,85.26
2022-09-18T06:01:51.544Z,87.17
2022-09-18T06:04:19.367Z,87.81
2022-09-18T06:06:47.666Z,85.27
2022-09-18T06:09:15.664Z,83.03
2022-09-18T06:11:43.489Z,82.93
2022-09-18T06:14:11.289Z,83.81
2022-09-18T06:16:42.481Z,82.69
2022-09-18T06:19:11.153Z,83.69
2022-09-18T06:21:38.996Z,83.89
2022-09-18T06:24:07.036Z,83.68
2022-09-18T06:26:34.854Z,85.04
2022-09-18T06:29:02.892Z,81.50
2022-09-18T06:31:30.730Z,85.53
2022-09-18T06:33:59.918Z,83.05
2022-09-18T06:36:27.727Z,83.29
2022-09-18T06:38:55.514Z,81.55
2022-09-18T06:41:24.993Z,81.85
2022-09-18T06:43:52.844Z,80.52
2022-09-18T06:46:20.785Z,81.90
2022-09-18T06:48:50.503Z,83.11
2022-09-18T06:51:19.658Z,80.41
2022-09-18T06:53:47.440Z,84.67
2022-09-18T06:56:15.274Z,84.29
2022-09-18T06:58:43.015Z,82.23
2022-09-18T07:01:10.960Z,83.47
2022-09-18T07:03:38.772Z,81.69
2022-09-18T07:06:09.827Z,81.07
2022-09-18T07:08:38.968Z,81.08
2022-09-18T07:11:06.801Z,80.96
2022-09-18T07:13:37.493Z,82.17
2022-09-18T07:16:05.974Z,82.57
2022-09-18T07:18:33.869Z,80.86
2022-09-18T07:21:02.386Z,81.88
2022-09-18T07:23:32.944Z,80.51
2022-09-18T07:26:03.260Z,81.03
2022-09-18T07:28:31.898Z,81.13
2022-09-18T07:31:04.725Z,82.00
2022-09-18T07:33:33.290Z,80.78
2022-09-18T07:36:01.803Z,79.54
2022-09-18T07:38:30.043Z,79.77
2022-09-18T07:40:58.509Z,80.60
2022-09-18T07:43:27.677Z,80.40
2022-09-18T07:45:55.427Z,80.04
2022-09-18T07:48:24.479Z,80.51
2022-09-18T07:50:52.661Z,76.88
2022-09-18T07:53:21.275Z,79.68
2022-09-18T07:55:49.067Z,80.51
2022-09-18T07:58:17.256Z,78.80
2022-09-18T08:00:46.383Z,79.75
2022-09-18T08:03:15.255Z,77.69
2022-09-18T08:05:43.382Z,79.15
2022-09-18T08:08:13.915Z,78.00
2022-09-18T08:10:44.497Z,75.14
2022-09-18T08:13:12.840Z,76.41
2022-09-18T08:15:43.497Z,75.41
2022-09-18T08:18:12.761Z,77.08
2022-09-18T08:20:41.598Z,76.82
2022-09-18T08:23:11.393Z,74.82
2022-09-18T08:25:41.201Z,74.85
2022-09-18T08:28:09.091Z,75.74
2022-09-18T08:30:37.227Z,74.86
2022-09-18T08:33:07.715Z,74.88
2022-09-18T08:35:37.332Z,74.97
2022-09-18T08:38:05.683Z,75.43
2022-09-18T08:41:05.266Z,75.68
2022-09-18T08:43:52.907Z,73.97
2022-09-18T08:46:29.378Z,73.70
2022-09-18T08:49:16.844Z,73.65
2022-09-18T08:51:57.567Z,74.18
2022-09-18T08:54:40.784Z,73.35
2022-09-18T08:57:18.931Z,73.64
2022-09-18T08:59:52.492Z,71.72
2022-09-18T09:02:37.843Z,71.88
2022-09-18T09:05:13.053Z,71.25
2022-09-18T09:08:18.341Z,71.90
2022-09-18T09:10:57.792Z,73.96
2022-09-18T09:14:30.353Z,71.02
2022-09-18T09:17:22.163Z,71.21
2022-09-18T09:19:55.390Z,68.83
2022-09-18T09:22:39.397Z,69.32
2022-09-18T09:25:21.472Z,70.72
2022-09-18T09:28:02.972Z,69.77
2022-09-18T09:30:36.071Z,72.59
2022-09-18T09:33:17.428Z,70.96
2022-09-18T09:35:50.728Z,69.60
2022-09-18T09:38:38.744Z,71.38
2022-09-18T09:41:21.540Z,70.79
2022-09-18T09:44:04.869Z,71.01
2022-09-18T09:46:52.235Z,69.08
2022-09-18T09:49:26.702Z,70.16
2022-09-18T09:52:09.081Z,69.97
2022-09-18T09:54:37.367Z,70.38
2022-09-18T09:57:22.162Z,72.53
2022-09-18T10:00:05.483Z,84.69
2022-09-18T10:02:51.072Z,87.03
2022-09-18T10:05:29.307Z,83.97
2022-09-18T10:08:10.314Z,77.67
2022-09-18T10:10:45.986Z,78.58
2022-09-18T10:13:20.475Z,74.85
2022-09-18T10:15:52.290Z,75.06
2022-09-18T10:18:26.163Z,73.78
2022-09-18T10:21:03.763Z,67.56
2022-09-18T10:23:38.805Z,72.81
2022-09-18T10:26:07.212Z,68.61
2022-09-18T10:28:36.377Z,68.66
2022-09-18T10:31:06.878Z,72.19
2022-09-18T10:33:38.728Z,72.69
2022-09-18T10:36:25.779Z,70.35
2022-09-18T10:38:53.753Z,69.00
2022-09-18T10:41:39.292Z,65.77
2022-09-18T10:44:27.964Z,67.69
2022-09-18T10:47:01.693Z,67.15
2022-09-18T10:49:33.931Z,65.66
2022-09-18T10:52:32.583Z,66.50
2022-09-18T10:55:17.349Z,65.06
2022-09-18T10:58:03.279Z,64.60
2022-09-18T11:00:46.465Z,64.98
2022-09-18T11:03:25.037Z,63.95
2022-09-18T11:05:58.863Z,63.96
2022-09-18T11:08:31.069Z,62.36
2022-09-18T11:11:05.427Z,63.45
2022-09-18T11:13:37.426Z,63.35
2022-09-18T11:16:07.682Z,63.55
2022-09-18T11:18:35.466Z,65.17
2022-09-18T11:21:07.526Z,63.65
2022-09-18T11:23:37.541Z,65.17
2022-09-18T11:26:19.337Z,65.27
2022-09-18T11:29:05.903Z,68.72
2022-09-18T11:31:47.267Z,70.41
2022-09-18T11:34:24.651Z,68.34
2022-09-18T11:36:57.560Z,68.39
2022-09-18T11:39:31.656Z,68.03
2022-09-18T11:42:00.239Z,66.86
2022-09-18T11:44:32.641Z,67.71
2022-09-18T11:47:28.231Z,66.44
2022-09-18T11:50:09.514Z,68.22
2022-09-18T11:52:43.706Z,67.98
2022-09-18T11:55:25.623Z,68.26
2022-09-18T11:57:59.396Z,66.24
2022-09-18T12:00:33.098Z,66.24
2022-09-18T12:03:18.389Z,66.89
2022-09-18T12:05:54.914Z,65.92
2022-09-18T12:08:42.297Z,65.68
2022-09-18T12:11:21.887Z,68.42
2022-09-18T12:14:03.851Z,65.84
2022-09-18T12:16:50.537Z,68.29
2022-09-18T12:19:29.641Z,67.24
2022-09-18T12:22:04.343Z,67.57
2022-09-18T12:24:32.252Z,66.70
2022-09-18T12:27:27.844Z,66.01
2022-09-18T12:30:09.863Z,64.00
2022-09-18T12:33:13.632Z,64.40
2022-09-18T12:36:33.646Z,61.90
2022-09-18T12:39:19.640Z,61.78
2022-09-18T12:42:04.675Z,61.05
2022-09-18T12:45:14.624Z,61.90
2022-09-18T12:48:04.673Z,60.14
2022-09-18T12:50:54.243Z,60.33
2022-09-18T12:53:44.707Z,61.86
2022-09-18T12:56:34.413Z,61.99
2022-09-18T12:59:48.210Z,61.78
2022-09-18T13:02:28.909Z,63.11
2022-09-18T13:05:04.497Z,63.82
2022-09-18T13:07:42.139Z,66.44
2022-09-18T13:10:20.683Z,65.64
2022-09-18T13:12:59.330Z,66.11
2022-09-18T13:15:33.187Z,65.67
2022-09-18T13:18:18.454Z,62.50
2022-09-18T13:20:47.132Z,63.29
2022-09-18T13:23:21.688Z,61.09
2022-09-18T13:25:52.056Z,62.12
2022-09-18T13:28:23.066Z,61.96
2022-09-18T13:31:23.505Z,61.51
2022-09-18T13:33:55.879Z,61.65
2022-09-18T13:36:26.939Z,61.14
2022-09-18T13:39:00.745Z,61.26
2022-09-18T13:41:30.255Z,59.43
2022-09-18T13:44:00.543Z,61.11
2022-09-18T13:46:37.879Z,61.66
2022-09-18T13:49:20.585Z,62.60
2022-09-18T13:51:48.601Z,62.48
2022-09-18T13:54:29.066Z,61.27
2022-09-18T13:57:22.142Z,60.66
2022-09-18T13:59:55.527Z,61.33
2022-09-18T14:02:28.362Z,62.15
2022-09-18T14:05:31.916Z,61.69
2022-09-18T14:08:14.844Z,61.92
2022-09-18T14:11:19.259Z,61.14
2022-09-18T14:13:53.919Z,61.13
2022-09-18T14:16:33.145Z,61.18
2022-09-18T14:19:27.739Z,60.44
2022-09-18T14:21:55.691Z,61.28
2022-09-18T14:25:01.805Z,60.84
2022-09-18T14:27:56.142Z,63.74
2022-09-18T14:30:26.775Z,63.37
2022-09-18T14:33:06.479Z,62.45
2022-09-18T14:35:47.949Z,63.51
2022-09-18T14:38:27.689Z,60.63
2022-09-18T14:41:05.620Z,60.71
2022-09-18T14:43:34.822Z,60.76
2022-09-18T14:46:03.849Z,63.03
2022-09-18T14:48:38.251Z,60.72
2022-09-18T14:51:17.360Z,60.63
2022-09-18T14:53:49.878Z,64.43
2022-09-18T14:56:24.556Z,61.81
2022-09-18T14:58:54.146Z,61.27
2022-09-18T15:01:26.396Z,64.79
2022-09-18T15:03:57.115Z,63.29
2022-09-18T15:06:35.918Z,63.48
2022-09-18T15:09:07.439Z,60.34
2022-09-18T15:11:52.464Z,61.63
2022-09-18T15:14:37.690Z,62.82
2022-09-18T15:17:20.583Z,60.50
2022-09-18T15:20:00.472Z,62.54
2022-09-18T15:22:30.535Z,61.53
2022-09-18T15:25:01.851Z,62.09
2022-09-18T15:27:31.989Z,63.59
2022-09-18T15:30:08.013Z,63.38
2022-09-18T15:32:40.516Z,63.67
2022-09-18T15:35:19.670Z,64.10
2022-09-18T15:37:54.066Z,62.79
2022-09-18T15:40:29.816Z,64.49
2022-09-18T15:43:01.835Z,64.43
2022-09-18T15:45:33.415Z,63.33
2022-09-18T15:48:35.223Z,65.53
2022-09-18T15:51:09.630Z,64.53
2022-09-18T15:53:38.527Z,63.32
2022-09-18T15:56:18.848Z,63.99
2022-09-18T15:58:54.166Z,66.07
2022-09-18T16:01:28.436Z,64.36
2022-09-18T16:04:09.148Z,66.59
2022-09-18T16:06:44.540Z,65.45
2022-09-18T16:09:30.687Z,65.64
2022-09-18T16:12:01.657Z,65.12
2022-09-18T16:14:50.044Z,66.12
2022-09-18T16:17:54.967Z,65.80
2022-09-18T16:20:34.770Z,65.39
2022-09-18T16:23:24.208Z,65.96
2022-09-18T16:26:07.280Z,66.52
2022-09-18T16:28:40.703Z,66.81
2022-09-18T16:31:08.597Z,66.30
2022-09-18T16:33:50.238Z,65.65
2022-09-18T16:36:28.307Z,66.32
2022-09-18T16:38:56.869Z,70.38
2022-09-18T16:41:25.020Z,66.48
2022-09-18T16:43:53.857Z,68.37
2022-09-18T16:46:28.193Z,71.44
2022-09-18T16:48:58.045Z,73.62
2022-09-18T16:51:26.844Z,79.68
2022-09-18T16:53:54.886Z,81.72
2022-09-18T16:56:28.754Z,84.11
2022-09-18T16:58:58.425Z,81.40
2022-09-18T17:01:26.546Z,79.70
2022-09-18T17:03:54.633Z,79.30
2022-09-18T17:06:23.700Z,76.66
2022-09-18T17:08:51.510Z,76.01
2022-09-18T17:11:19.660Z,75.33
2022-09-18T17:13:47.429Z,76.59
2022-09-18T17:16:30.322Z,76.30
2022-09-18T17:19:03.784Z,78.19
2022-09-18T17:21:32.932Z,78.80
2022-09-18T17:24:02.035Z,79.26
2022-09-18T17:26:30.990Z,79.93
2022-09-18T17:28:59.652Z,79.43
2022-09-18T17:31:28.494Z,80.69
2022-09-18T17:33:57.283Z,79.18
2022-09-18T17:36:25.408Z,80.80
2022-09-18T17:38:54.738Z,79.81
2022-09-18T17:41:22.800Z,80.86
2022-09-18T17:43:53.569Z,80.64
2022-09-18T17:46:21.970Z,80.61
2022-09-18T17:48:50.030Z,80.50
2022-09-18T17:51:19.843Z,83.22
2022-09-18T17:53:50.028Z,82.29
2022-09-18T17:56:21.331Z,84.20
2022-09-18T17:58:49.375Z,82.95
2022-09-18T18:01:21.133Z,83.06
2022-09-18T18:03:49.488Z,86.19
2022-09-18T18:06:21.609Z,87.95
2022-09-18T18:08:50.954Z,87.56
2022-09-18T18:11:23.012Z,89.59
2022-09-18T18:13:53.344Z,86.44
2022-09-18T18:16:24.902Z,87.61
2022-09-18T18:18:55.527Z,86.72
2022-09-18T18:21:24.519Z,84.50
2022-09-18T18:23:56.927Z,85.14
2022-09-18T18:26:28.835Z,83.86
2022-09-18T18:28:56.928Z,83.25
2022-09-18T18:31:26.344Z,84.57
2022-09-18T18:33:56.278Z,86.68
2022-09-18T18:36:27.229Z,83.44
2022-09-18T18:38:57.511Z,82.49
2022-09-18T18:41:29.037Z,83.24
2022-09-18T18:44:01.893Z,82.10
2022-09-18T18:46:35.959Z,83.25
2022-09-18T18:49:10.078Z,83.06
2022-09-18T18:51:42.958Z,84.42
2022-09-18T18:54:11.746Z,84.01
2022-09-18T18:56:41.564Z,86.16
2022-09-18T18:59:13.954Z,84.93
2022-09-18T19:01:43.242Z,84.52
2022-09-18T19:04:13.766Z,84.92
2022-09-18T19:06:44.849Z,85.45
2022-09-18T19:09:20.056Z,85.86
2022-09-18T19:11:52.805Z,85.66
2022-09-18T19:14:23.883Z,90.08
2022-09-18T19:16:53.251Z,87.27
2022-09-18T19:19:24.572Z,90.23
2022-09-18T19:21:53.666Z,86.87
2022-09-18T19:24:22.692Z,84.71
2022-09-18T19:26:51.808Z,83.32
2022-09-18T19:29:22.393Z,83.45
2022-09-18T19:31:51.473Z,84.56
2022-09-18T19:34:22.084Z,83.09
2022-09-18T19:36:51.762Z,86.38
2022-09-18T19:39:24.398Z,85.20
2022-09-18T19:41:59.988Z,82.28
2022-09-18T19:44:32.690Z,82.44
2022-09-18T19:47:04.364Z,82.66
2022-09-18T19:49:37.155Z,83.97
2022-09-18T19:52:15.091Z,84.02
2022-09-18T19:54:42.883Z,87.54
2022-09-18T19:57:12.939Z,92.50
2022-09-18T19:59:40.800Z,88.56
2022-09-18T20:02:09.303Z,84.82
2022-09-18T20:04:40.771Z,87.70
2022-09-18T20:07:09.445Z,84.51
2022-09-18T20:09:37.720Z,80.67
2022-09-18T20:12:05.824Z,85.60
2022-09-18T20:14:35.051Z,82.11
2022-09-18T20:17:02.926Z,86.01
2022-09-18T20:19:30.825Z,83.66
2022-09-18T20:22:02.330Z,79.01
2022-09-18T20:24:30.504Z,81.00
2022-09-18T20:26:58.812Z,81.88
2022-09-18T20:29:27.427Z,85.56
2022-09-18T20:31:58.053Z,82.51
2022-09-18T20:34:26.183Z,80.36
2022-09-18T20:36:54.866Z,80.26
2022-09-18T20:39:22.909Z,80.73
2022-09-18T20:41:51.171Z,84.14
2022-09-18T20:44:19.904Z,82.00
2022-09-18T20:46:50.435Z,81.26
2022-09-18T20:49:19.674Z,81.23
2022-09-18T20:51:47.492Z,80.76
2022-09-18T20:54:19.228Z,81.44
2022-09-18T20:56:47.327Z,81.59
2022-09-18T20:59:18.386Z,83.43
2022-09-18T21:01:47.826Z,82.20
2022-09-18T21:04:20.142Z,81.64
2022-09-18T21:06:56.010Z,83.46
2022-09-18T21:09:26.712Z,84.72
2022-09-18T21:11:56.706Z,84.61
2022-09-18T21:14:25.522Z,82.99
2022-09-18T21:16:54.398Z,83.15
2022-09-18T21:19:26.041Z,82.89
2022-09-18T21:21:54.017Z,83.76
2022-09-18T21:24:22.334Z,82.49
2022-09-18T21:26:51.385Z,82.43
2022-09-18T21:29:22.662Z,85.13
2022-09-18T21:31:53.574Z,83.34
2022-09-18T21:34:26.547Z,83.55
2022-09-18T21:36:57.678Z,82.78
2022-09-18T21:39:28.115Z,83.47
2022-09-18T21:41:56.899Z,83.00
2022-09-18T21:44:27.787Z,86.43
2022-09-18T21:46:57.166Z,84.03
2022-09-18T21:49:27.721Z,83.59
2022-09-18T21:51:57.588Z,88.76
2022-09-18T21:54:27.007Z,85.39
2022-09-18T21:56:56.434Z,84.05
2022-09-18T21:59:26.808Z,83.54
2022-09-18T22:01:55.512Z,83.89
2022-09-18T22:04:26.258Z,83.52
2022-09-18T22:06:58.679Z,83.19
2022-09-18T22:09:29.659Z,84.19
2022-09-18T22:11:59.241Z,83.57
2022-09-18T22:14:31.328Z,84.03
2022-09-18T22:17:00.888Z,84.42
2022-09-18T22:19:29.663Z,82.36
2022-09-18T22:21:58.793Z,83.15
2022-09-18T22:24:29.230Z,83.74
2022-09-18T22:27:00.676Z,84.98
2022-09-18T22:29:31.371Z,83.08
2022-09-18T22:32:00.336Z,83.79
2022-09-18T22:34:31.386Z,85.20
2022-09-18T22:37:02.274Z,85.92
2022-09-18T22:39:30.781Z,83.97
2022-09-18T22:41:58.924Z,86.67
2022-09-18T22:44:27.092Z,88.01
2022-09-18T22:46:55.228Z,87.56
2022-09-18T22:49:25.073Z,87.31
2022-09-18T22:51:53.201Z,85.62
2022-09-18T22:54:26.397Z,85.93
2022-09-18T22:56:55.759Z,89.44
2022-09-18T22:59:27.163Z,89.12
2022-09-18T23:01:59.398Z,88.05
2022-09-18T23:04:31.566Z,89.83
2022-09-18T23:09:19.081Z,88.00
2022-09-18T23:11:50.519Z,89.71
2022-09-18T23:14:22.728Z,87.48
2022-09-18T23:16:51.852Z,89.70
2022-09-18T23:19:22.780Z,89.85
2022-09-18T23:22:35.812Z,90.37
2022-09-18T23:25:03.226Z,91.03
2022-09-18T23:27:30.639Z,90.58
2022-09-18T23:29:58.060Z,89.62
2022-09-18T23:32:25.676Z,90.18
2022-09-18T23:34:54.507Z,93.00
2022-09-18T23:37:21.891Z,91.32
2022-09-18T23:39:50.615Z,87.98
2022-09-18T23:42:18.009Z,89.70
2022-09-18T23:44:45.423Z,91.88
2022-09-18T23:47:12.784Z,94.62
2022-09-18T23:49:40.215Z,93.32
2022-09-18T23:52:07.615Z,92.13
2022-09-18T23:54:35.002Z,91.56
2022-09-18T23:57:03.730Z,89.05
2022-09-18T23:59:31.261Z,88.56
